»·PEaware :: WAT528 KAUS-KLAS

WAT528 :: KAUS-KLAS

FLIGHT INFORMATION

Flight Status: Arrived
Operator:
Walker Air Transport
More flights by this operator :: More flights under this callsign
Pilot: Aleksandar D. (29171)
Aircraft: Airbus A320neo
(A20N)
More flights by this aircraft type
Origin: KAUS Austin Bergstrom Intl
United States
Destination: KLAS McCarran Intl
United States
More flights between these airports :: More routes between these airports
Route: MUCKY JCT J86 SPLTR IGM TYSSN5
File this flight plan on PilotEdge
Remarks: airspace entry 40nm E of FST via j86. Est FST 2055Z
Altitude:
(Current/Filed)
36,000ft
Speed:
(Current/Filed)
460kts
Departed: 21-Feb-21 02:26 PM
Arrived: 21-Feb-21 04:53 PM
Distance/Time
Traveled:
945nm/2:27
Distance/Time
To Go:
Arrived

Flight Plot

Page will automatically refresh every two minutes.

Flight plan parsing failed; only flown route is shown


Map Options




Map Legend


Flown Route
Filed Route
Departure Airport
Arrival Airport
Navaid (VOR, NDB)
Fix

Horizontal Profiles

Position Reports

Time Latitude Longitude Heading Altitude Ground
Speed
21-Feb-21 14:24 30.523741 -99.418708 277 36411ft 365kts
21-Feb-21 14:25 30.545318 -99.533834 277 36122ft 363kts
21-Feb-21 14:26 30.566632 -99.648147 277 36093ft 364kts
21-Feb-21 14:27 30.587978 -99.763204 276 36094ft 364kts
21-Feb-21 14:28 30.604998 -99.878462 274 36096ft 362kts
21-Feb-21 14:29 30.619713 -99.994259 274 36089ft 362kts
21-Feb-21 14:30 30.634002 -100.109857 273 36091ft 361kts
21-Feb-21 14:31 30.648143 -100.225441 273 36266ft 358kts
21-Feb-21 14:32 30.662149 -100.341277 273 36430ft 362kts
21-Feb-21 14:33 30.676089 -100.457279 273 36179ft 359kts
21-Feb-21 14:34 30.689797 -100.572367 273 36153ft 362kts
21-Feb-21 14:35 30.703496 -100.688163 273 36154ft 360kts
21-Feb-21 14:36 30.716986 -100.803185 273 36154ft 361kts
21-Feb-21 14:37 30.730452 -100.918947 273 36144ft 360kts
21-Feb-21 14:38 30.743789 -101.034527 273 36136ft 361kts
21-Feb-21 14:39 30.757049 -101.150185 273 36136ft 360kts
21-Feb-21 14:40 30.770197 -101.265965 273 36141ft 361kts
21-Feb-21 14:41 30.783253 -101.381716 273 36141ft 360kts
21-Feb-21 14:42 30.796177 -101.497351 273 36142ft 361kts
21-Feb-21 14:43 30.809015 -101.613057 273 36138ft 361kts
21-Feb-21 14:44 30.821715 -101.728548 273 36302ft 357kts
21-Feb-21 14:45 30.834340 -101.844544 273 36455ft 362kts
21-Feb-21 14:46 30.846955 -101.960094 273 36444ft 361kts
21-Feb-21 14:47 30.859267 -102.075458 273 36455ft 360kts
21-Feb-21 14:48 30.871551 -102.191299 273 36444ft 360kts
21-Feb-21 14:49 30.883755 -102.307387 273 36446ft 361kts
21-Feb-21 14:50 30.895857 -102.423260 273 36288ft 363kts
21-Feb-21 14:51 30.907845 -102.539000 273 36161ft 358kts
21-Feb-21 14:52 30.919714 -102.654744 273 36151ft 360kts
21-Feb-21 14:53 30.931523 -102.770617 273 36145ft 359kts
21-Feb-21 14:54 30.943183 -102.886465 273 36147ft 359kts
21-Feb-21 14:55 30.962451 -103.001019 280 36145ft 364kts
21-Feb-21 14:56 30.991605 -103.114173 282 36148ft 365kts
21-Feb-21 14:57 31.021970 -103.227104 282 36148ft 365kts
21-Feb-21 14:58 31.052815 -103.339857 281 36148ft 365kts
21-Feb-21 14:59 31.083374 -103.452775 281 36149ft 364kts
21-Feb-21 15:00 31.113655 -103.565239 282 36150ft 365kts
21-Feb-21 15:01 31.144300 -103.678422 282 36148ft 365kts
21-Feb-21 15:03 31.174794 -103.791520 282 36149ft 365kts
21-Feb-21 15:04 31.205249 -103.904981 282 36147ft 366kts
21-Feb-21 15:05 31.235542 -104.018257 282 36149ft 365kts
21-Feb-21 15:06 31.265631 -104.131274 282 36292ft 363kts
21-Feb-21 15:07 31.295819 -104.245164 282 36310ft 368kts
21-Feb-21 15:08 31.325865 -104.358682 282 36251ft 365kts
21-Feb-21 15:09 31.359223 -104.471886 281 36252ft 367kts
21-Feb-21 15:10 31.387170 -104.586217 281 36252ft 366kts
21-Feb-21 15:11 31.415591 -104.700753 281 36258ft 368kts
21-Feb-21 15:12 31.444975 -104.815312 281 36251ft 367kts
21-Feb-21 15:13 31.474524 -104.929994 281 36231ft 369kts
21-Feb-21 15:14 31.504335 -105.045319 281 36258ft 370kts
21-Feb-21 15:15 31.533928 -105.160346 281 36327ft 367kts
21-Feb-21 15:16 31.563475 -105.275565 281 36374ft 370kts
21-Feb-21 15:17 31.592936 -105.390896 281 36372ft 369kts
21-Feb-21 15:18 31.622105 -105.506162 281 36365ft 370kts
21-Feb-21 15:18 31.646870 -105.602811 282 36369ft 371kts
21-Feb-21 15:20 31.683392 -105.737598 280 36359ft 370kts
21-Feb-21 15:21 31.710418 -105.854615 280 36271ft 371kts
21-Feb-21 15:22 31.738638 -105.971119 281 36268ft 372kts
21-Feb-21 15:22 31.762671 -106.068338 281 36264ft 372kts
21-Feb-21 15:24 31.796442 -106.204465 281 36257ft 372kts
21-Feb-21 15:25 31.846799 -106.312684 299 36258ft 391kts
21-Feb-21 15:25 31.904806 -106.389143 309 36259ft 402kts
21-Feb-21 15:26 31.984969 -106.479141 317 36243ft 413kts
21-Feb-21 15:28 32.091756 -106.570689 302 36292ft 396kts
21-Feb-21 15:28 32.150782 -106.653701 301 36287ft 394kts
21-Feb-21 15:29 32.221243 -106.752703 298 36285ft 392kts
21-Feb-21 15:30 32.264941 -106.853242 289 36314ft 383kts
21-Feb-21 15:31 32.337782 -106.966174 301 36327ft 396kts
21-Feb-21 15:32 32.410201 -107.065083 302 36326ft 398kts
21-Feb-21 15:33 32.483346 -107.163698 302 36319ft 398kts
21-Feb-21 15:34 32.557125 -107.262460 303 36339ft 399kts
21-Feb-21 15:35 32.630802 -107.361188 302 36262ft 400kts
21-Feb-21 15:36 32.704631 -107.460510 303 36252ft 402kts
21-Feb-21 15:37 32.783069 -107.556349 307 36257ft 407kts
21-Feb-21 15:38 32.865521 -107.648748 307 36265ft 408kts
21-Feb-21 15:39 32.947511 -107.741735 307 36301ft 409kts
21-Feb-21 15:40 33.029459 -107.836154 306 36285ft 407kts
21-Feb-21 15:41 33.110245 -107.930628 306 36364ft 408kts
21-Feb-21 15:42 33.190374 -108.026088 306 36384ft 407kts
21-Feb-21 15:43 33.269784 -108.122225 305 36387ft 405kts
21-Feb-21 15:44 33.348204 -108.218885 304 36377ft 404kts
21-Feb-21 15:45 33.425751 -108.316451 304 36398ft 404kts
21-Feb-21 15:46 33.502212 -108.414159 303 36405ft 401kts
21-Feb-21 15:47 33.574298 -108.514493 309 36419ft 408kts
21-Feb-21 15:48 33.651543 -108.611320 300 36426ft 397kts
21-Feb-21 15:49 33.721095 -108.713830 299 36401ft 394kts
21-Feb-21 15:50 33.790309 -108.816270 300 36411ft 393kts
21-Feb-21 15:51 33.859376 -108.918185 300 36410ft 393kts
21-Feb-21 15:52 33.929047 -109.020386 300 36399ft 396kts
21-Feb-21 15:53 33.998658 -109.121895 299 36409ft 393kts
21-Feb-21 15:54 34.061362 -109.228336 295 36398ft 386kts
21-Feb-21 15:55 34.121189 -109.335797 294 36389ft 385kts
21-Feb-21 15:56 34.169978 -109.449005 285 36385ft 376kts
21-Feb-21 15:57 34.207962 -109.566457 284 36379ft 375kts
21-Feb-21 15:58 34.246848 -109.683138 286 36389ft 371kts
21-Feb-21 15:59 34.287829 -109.798235 286 36396ft 375kts
21-Feb-21 16:00 34.327689 -109.914615 285 36398ft 375kts
21-Feb-21 16:01 34.365040 -110.032531 282 36388ft 374kts
21-Feb-21 16:02 34.393716 -110.153541 280 36380ft 374kts
21-Feb-21 16:03 34.420937 -110.275168 280 36386ft 375kts
21-Feb-21 16:04 34.447914 -110.397482 280 36383ft 376kts
21-Feb-21 16:05 34.474649 -110.520318 280 36387ft 377kts
21-Feb-21 16:06 34.500099 -110.643926 277 36390ft 377kts
21-Feb-21 16:07 34.516682 -110.769574 275 36389ft 378kts
21-Feb-21 16:08 34.537212 -110.894893 284 36361ft 381kts
21-Feb-21 16:09 34.572110 -111.016308 283 36358ft 383kts
21-Feb-21 16:10 34.602922 -111.140048 283 36359ft 383kts
21-Feb-21 16:11 34.633095 -111.264105 283 36362ft 384kts
21-Feb-21 16:12 34.664563 -111.388477 284 36358ft 385kts
21-Feb-21 16:13 34.696002 -111.512868 284 36366ft 386kts
21-Feb-21 16:14 34.727057 -111.637950 283 36378ft 387kts
21-Feb-21 16:15 34.756402 -111.763704 284 36365ft 386kts
21-Feb-21 16:16 34.786766 -111.889683 284 36372ft 388kts
21-Feb-21 16:17 34.817091 -112.015133 284 36367ft 389kts
21-Feb-21 16:18 34.847358 -112.141796 284 36355ft 390kts
21-Feb-21 16:19 34.877409 -112.268795 284 36378ft 390kts
21-Feb-21 16:20 34.907299 -112.396194 284 36416ft 391kts
21-Feb-21 16:21 34.936917 -112.523812 284 36428ft 391kts
21-Feb-21 16:22 34.966338 -112.651999 284 36428ft 393kts
21-Feb-21 16:23 34.995570 -112.780438 284 36431ft 394kts
21-Feb-21 16:24 35.024785 -112.909495 284 36432ft 394kts
21-Feb-21 16:25 35.053646 -113.039094 284 36433ft 397kts
21-Feb-21 16:26 35.082185 -113.168986 284 36428ft 396kts
21-Feb-21 16:27 35.110599 -113.299502 284 36420ft 398kts
21-Feb-21 16:28 35.139518 -113.430163 285 36413ft 399kts
21-Feb-21 16:29 35.167921 -113.561601 285 36409ft 400kts
21-Feb-21 16:30 35.195717 -113.693119 284 36391ft 400kts
21-Feb-21 16:31 35.230023 -113.822688 289 36390ft 402kts
21-Feb-21 16:32 35.280121 -113.942161 311 36399ft 405kts
21-Feb-21 16:33 35.385268 -113.996922 334 34995ft 413kts
21-Feb-21 16:34 35.490737 -114.048622 338 30026ft 396kts
21-Feb-21 16:35 35.587735 -114.096832 338 25997ft 354kts
21-Feb-21 16:36 35.650532 -114.183897 303 21650ft 350kts
21-Feb-21 16:37 35.693097 -114.288170 302 17049ft 327kts
21-Feb-21 16:38 35.732471 -114.385902 302 12551ft 314kts
21-Feb-21 16:39 35.772909 -114.481211 302 10594ft 307kts
21-Feb-21 16:40 35.808976 -114.563600 303 8668ft 254kts
21-Feb-21 16:41 35.850732 -114.632642 312 8040ft 248kts
21-Feb-21 16:42 35.894265 -114.699182 312 8028ft 250kts
21-Feb-21 16:43 35.937904 -114.765468 312 8008ft 249kts
21-Feb-21 16:44 35.981019 -114.831160 312 7997ft 232kts
21-Feb-21 16:45 36.020667 -114.892302 312 8008ft 224kts
21-Feb-21 16:46 36.056127 -114.947806 312 8001ft 185kts
21-Feb-21 16:47 36.087634 -114.997783 313 8004ft 184kts
21-Feb-21 16:48 36.119668 -115.043735 319 7440ft 175kts
21-Feb-21 16:49 36.149161 -115.087256 288 5353ft 178kts
21-Feb-21 16:50 36.134189 -115.138869 200 3417ft 173kts
21-Feb-21 16:51 36.091708 -115.157627 203 2115ft 137kts
21-Feb-21 16:52 36.081722 -115.160742 130 2157ft 6kts
21-Feb-21 16:53 36.081808 -115.154302 82 2143ft 21kts
21-Feb-21 16:54 36.082271 -115.153205 24 2136ft 0kts

Navigation Log

Ident Type
Flight plan parsing failed, navigation log unavailable